createdAt,value
2022-10-13T00:03:57.530Z,1020.9
2022-10-13T00:08:57.900Z,1020.8
2022-10-13T00:13:57.628Z,1020.8
2022-10-13T00:18:58.026Z,1020.7
2022-10-13T00:23:57.556Z,1020.7
2022-10-13T00:28:58.186Z,1020.7
2022-10-13T00:33:57.923Z,1020.7
2022-10-13T00:38:57.778Z,1020.7
2022-10-13T00:43:58.249Z,1020.7
2022-10-13T00:48:57.760Z,1020.6
2022-10-13T00:54:01.367Z,1020.6
2022-10-13T00:58:57.734Z,1020.5
2022-10-13T01:03:57.863Z,1020.5
2022-10-13T01:08:58.439Z,1020.6
2022-10-13T01:13:58.346Z,1020.6
2022-10-13T01:18:58.318Z,1020.5
2022-10-13T01:23:58.233Z,1020.5
2022-10-13T01:28:57.825Z,1020.4
2022-10-13T01:33:58.787Z,1020.4
2022-10-13T01:38:58.168Z,1020.3
2022-10-13T01:43:57.882Z,1020.3
2022-10-13T01:48:58.110Z,1020.3
2022-10-13T01:53:58.458Z,1020.3
2022-10-13T01:58:58.254Z,1020.2
2022-10-13T02:03:58.178Z,1020.2
2022-10-13T02:08:57.783Z,1020.2
2022-10-13T02:13:58.137Z,1020.2
2022-10-13T02:18:58.493Z,1020.2
2022-10-13T02:23:58.228Z,1020.2
2022-10-13T02:28:57.575Z,1020
2022-10-13T02:33:58.171Z,1020
2022-10-13T02:38:58.759Z,1019.9
2022-10-13T02:43:57.867Z,1019.9
2022-10-13T02:48:58.574Z,1019.9
2022-10-13T02:53:58.276Z,1019.9
2022-10-13T02:58:57.955Z,1019.7
2022-10-13T03:03:58.007Z,1019.7
2022-10-13T03:08:57.861Z,1019.7
2022-10-13T03:13:58.575Z,1019.7
2022-10-13T03:18:58.230Z,1019.6
2022-10-13T03:23:58.634Z,1019.6
2022-10-13T03:28:58.506Z,1019.5
2022-10-13T03:33:58.314Z,1019.5
2022-10-13T03:38:57.743Z,1019.5
2022-10-13T03:43:58.397Z,1019.5
2022-10-13T03:48:58.278Z,1019.4
2022-10-13T03:53:58.504Z,1019.4
2022-10-13T03:58:58.510Z,1019.5
2022-10-13T04:03:58.293Z,1019.5
2022-10-13T04:08:57.815Z,1019.5
2022-10-13T04:13:57.796Z,1019.5
2022-10-13T04:18:58.288Z,1019.5
2022-10-13T04:23:58.551Z,1019.5
2022-10-13T04:28:58.226Z,1019.4
2022-10-13T04:33:57.840Z,1019.4
2022-10-13T04:38:58.664Z,1019.4
2022-10-13T04:43:58.056Z,1019.4
2022-10-13T04:48:57.959Z,1019.4
2022-10-13T04:53:58.566Z,1019.4
2022-10-13T04:58:58.156Z,1019.3
2022-10-13T05:03:57.947Z,1019.3
2022-10-13T05:08:58.610Z,1019.2
2022-10-13T05:13:58.412Z,1019.2
2022-10-13T05:18:57.930Z,1019.2
2022-10-13T05:23:57.811Z,1019.2
2022-10-13T05:28:58.284Z,1019.1
2022-10-13T05:33:58.592Z,1019.1
2022-10-13T05:38:58.126Z,1019
2022-10-13T05:43:58.481Z,1019
2022-10-13T05:48:57.691Z,1019
2022-10-13T05:53:58.100Z,1019
2022-10-13T05:58:58.436Z,1018.7
2022-10-13T06:03:58.023Z,1018.7
2022-10-13T06:08:58.429Z,1018.5
2022-10-13T06:13:57.851Z,1018.5
2022-10-13T06:18:58.051Z,1018.4
2022-10-13T06:23:58.627Z,1018.4
2022-10-13T06:29:00.235Z,1018.5
2022-10-13T06:33:58.151Z,1018.5
2022-10-13T06:38:58.437Z,1018.5
2022-10-13T06:43:58.006Z,1018.5
2022-10-13T06:48:58.429Z,1018.5
2022-10-13T06:53:57.923Z,1018.5
2022-10-13T06:58:58.328Z,1018.5
2022-10-13T07:03:58.533Z,1018.5
2022-10-13T07:08:58.079Z,1018.5
2022-10-13T07:13:58.523Z,1018.5
2022-10-13T07:18:58.359Z,1018.3
2022-10-13T07:23:57.937Z,1018.3
2022-10-13T07:28:58.812Z,1018.5
2022-10-13T07:33:58.284Z,1018.5
2022-10-13T07:38:58.732Z,1018.3
2022-10-13T07:43:58.492Z,1018.3
2022-10-13T07:48:57.798Z,1018.2
2022-10-13T07:53:58.630Z,1018.2
2022-10-13T07:58:58.002Z,1018.2
2022-10-13T08:03:58.446Z,1018.2
2022-10-13T08:08:58.947Z,1018.3
2022-10-13T08:13:58.452Z,1018.3
2022-10-13T08:18:58.145Z,1018.1
2022-10-13T08:23:57.989Z,1018.1
2022-10-13T08:29:23.137Z,1018.2
2022-10-13T08:33:58.279Z,1018.2
2022-10-13T08:38:58.188Z,1018
2022-10-13T08:45:22.141Z,1018
2022-10-13T08:48:58.816Z,1018
2022-10-13T08:53:58.700Z,1018
2022-10-13T08:58:58.168Z,1018
2022-10-13T09:03:58.068Z,1018
2022-10-13T09:08:58.755Z,1018.2
2022-10-13T09:13:58.501Z,1018.2
2022-10-13T09:18:58.302Z,1018
2022-10-13T09:23:57.926Z,1018
2022-10-13T09:28:58.683Z,1018
2022-10-13T09:33:58.582Z,1018
2022-10-13T09:38:57.995Z,1018
2022-10-13T09:43:58.428Z,1018
2022-10-13T09:48:58.067Z,1018
2022-10-13T09:53:58.633Z,1018
2022-10-13T09:58:58.166Z,1017.9
2022-10-13T10:03:58.754Z,1017.9
2022-10-13T10:09:05.206Z,1017.8
2022-10-13T10:13:59.210Z,1017.8
2022-10-13T10:18:59.217Z,1017.7
2022-10-13T10:23:58.062Z,1017.7
2022-10-13T10:28:58.664Z,1017.7
2022-10-13T10:33:58.215Z,1017.7
2022-10-13T10:38:58.381Z,1017.7
2022-10-13T10:43:57.937Z,1017.7
2022-10-13T10:48:58.882Z,1017.5
2022-10-13T10:53:58.532Z,1017.5
2022-10-13T10:58:57.971Z,1017.4
2022-10-13T11:03:58.371Z,1017.4
2022-10-13T11:08:58.807Z,1017.2
2022-10-13T11:13:57.992Z,1017.2
2022-10-13T11:18:58.517Z,1017.1
2022-10-13T11:24:02.424Z,1017.1
2022-10-13T11:28:58.894Z,1016.9
2022-10-13T11:33:58.347Z,1016.9
2022-10-13T11:38:58.613Z,1016.8
2022-10-13T11:43:57.968Z,1016.8
2022-10-13T11:48:58.444Z,1016.9
2022-10-13T11:53:58.787Z,1016.9
2022-10-13T11:58:58.308Z,1017
2022-10-13T12:03:58.528Z,1017
2022-10-13T12:08:58.231Z,1016.9
2022-10-13T12:13:58.537Z,1016.9
2022-10-13T12:18:58.046Z,1016.8
2022-10-13T12:23:58.802Z,1016.8
2022-10-13T12:28:58.615Z,1016.6
2022-10-13T12:33:58.009Z,1016.6
2022-10-13T12:38:59.061Z,1016.4
2022-10-13T12:44:06.605Z,1016.4
2022-10-13T12:48:58.385Z,1016.5
2022-10-13T12:53:58.881Z,1016.5
2022-10-13T12:58:58.222Z,1016.3
2022-10-13T13:03:58.667Z,1016.3
2022-10-13T13:08:58.512Z,1016.3
2022-10-13T13:13:58.736Z,1016.3
2022-10-13T13:18:58.833Z,1016.3
2022-10-13T13:24:04.214Z,1016.3
2022-10-13T13:28:58.725Z,1016.3
2022-10-13T13:33:58.264Z,1016.3
2022-10-13T13:38:58.996Z,1016.3
2022-10-13T13:43:58.482Z,1016.3
2022-10-13T13:48:58.759Z,1016.3
2022-10-13T13:53:58.302Z,1016.3
2022-10-13T13:58:58.781Z,1016.4
2022-10-13T14:03:58.444Z,1016.4
2022-10-13T14:08:58.635Z,1016.3
2022-10-13T14:13:58.332Z,1016.3
2022-10-13T14:18:58.719Z,1016.2
2022-10-13T14:23:58.212Z,1016.2
2022-10-13T14:28:58.654Z,1016.2
2022-10-13T14:33:58.279Z,1016.2
2022-10-13T14:38:58.132Z,1016.2
2022-10-13T14:43:58.632Z,1016.2
2022-10-13T14:48:58.377Z,1016.1
2022-10-13T14:53:58.159Z,1016.1
2022-10-13T14:58:58.436Z,1016.1
2022-10-13T15:03:58.177Z,1016.1
2022-10-13T15:08:59.017Z,1016
2022-10-13T15:13:58.473Z,1016
2022-10-13T15:18:58.970Z,1016
2022-10-13T15:23:58.222Z,1016
2022-10-13T15:28:59.255Z,1015.8
2022-10-13T15:33:58.105Z,1015.8
2022-10-13T15:38:59.084Z,1015.8
2022-10-13T15:43:59.132Z,1015.8
2022-10-13T15:48:58.517Z,1015.9
2022-10-13T15:53:59.055Z,1015.9
2022-10-13T15:58:58.652Z,1016
2022-10-13T16:03:58.886Z,1016
2022-10-13T16:08:58.649Z,1015.9
2022-10-13T16:13:58.291Z,1015.9
2022-10-13T16:18:58.727Z,1016
2022-10-13T16:23:58.262Z,1016
2022-10-13T16:28:58.914Z,1016
2022-10-13T16:33:58.618Z,1016
2022-10-13T16:38:58.142Z,1016
2022-10-13T16:43:59.005Z,1016
2022-10-13T16:48:58.736Z,1016
2022-10-13T16:54:04.652Z,1016
2022-10-13T16:58:59.114Z,1016
2022-10-13T17:03:58.696Z,1016
2022-10-13T17:08:59.270Z,1016
2022-10-13T17:13:58.760Z,1016
2022-10-13T17:18:58.391Z,1016
2022-10-13T17:23:58.668Z,1016
2022-10-13T17:28:58.257Z,1016.2
2022-10-13T17:33:58.780Z,1016.2
2022-10-13T17:38:58.418Z,1016.2
2022-10-13T17:43:59.066Z,1016.2
2022-10-13T17:48:58.648Z,1016.4
2022-10-13T17:53:59.086Z,1016.4
2022-10-13T17:58:58.767Z,1016.4
2022-10-13T18:03:59.402Z,1016.4
2022-10-13T18:08:58.147Z,1016.3
2022-10-13T18:13:58.581Z,1016.3
2022-10-13T18:18:59.202Z,1016.3
2022-10-13T18:23:58.704Z,1016.3
2022-10-13T18:28:59.299Z,1016.2
2022-10-13T18:33:59.373Z,1016.2
2022-10-13T18:38:58.770Z,1016.1
2022-10-13T18:43:58.154Z,1016.1
2022-10-13T18:48:58.661Z,1016.1
2022-10-13T18:53:59.022Z,1016.1
2022-10-13T18:59:00.311Z,1016.1
2022-10-13T19:03:58.884Z,1016.1
2022-10-13T19:08:58.687Z,1016.2
2022-10-13T19:13:59.077Z,1016.2
2022-10-13T19:18:58.400Z,1016.2
2022-10-13T19:23:58.904Z,1016.2
2022-10-13T19:28:58.406Z,1016.2
2022-10-13T19:33:58.839Z,1016.2
2022-10-13T19:38:58.934Z,1016.2
2022-10-13T19:43:58.688Z,1016.2
2022-10-13T19:48:59.142Z,1016.2
2022-10-13T19:53:58.652Z,1016.2
2022-10-13T19:58:59.041Z,1016.2
2022-10-13T20:03:58.633Z,1016.2
2022-10-13T20:08:59.048Z,1016.2
2022-10-13T20:13:58.741Z,1016.2
2022-10-13T20:18:59.207Z,1016.2
2022-10-13T20:23:58.678Z,1016.2
2022-10-13T20:28:59.038Z,1016.2
2022-10-13T20:33:58.460Z,1016.2
2022-10-13T20:38:58.529Z,1016.2
2022-10-13T20:43:58.472Z,1016.2
2022-10-13T20:49:13.274Z,1016.3
2022-10-13T20:53:58.965Z,1016.3
2022-10-13T20:58:58.955Z,1016.2
2022-10-13T21:03:58.629Z,1016.2
2022-10-13T21:08:58.609Z,1016.2
2022-10-13T21:13:59.255Z,1016.2
2022-10-13T21:18:58.672Z,1016.3
2022-10-13T21:23:58.378Z,1016.3
2022-10-13T21:28:59.182Z,1016.2
2022-10-13T21:33:58.835Z,1016.2
2022-10-13T21:38:59.252Z,1016.2
2022-10-13T21:43:59.226Z,1016.2
2022-10-13T21:48:59.084Z,1016.2
2022-10-13T21:53:58.719Z,1016.2
2022-10-13T21:58:59.068Z,1016.2
2022-10-13T22:03:59.033Z,1016.2
2022-10-13T22:08:58.605Z,1016.3
2022-10-13T22:13:58.953Z,1016.3
2022-10-13T22:18:58.718Z,1016.1
2022-10-13T22:23:59.306Z,1016.1
2022-10-13T22:28:59.166Z,1016.1
2022-10-13T22:33:58.737Z,1016.1
2022-10-13T22:38:59.112Z,1016.1
2022-10-13T22:43:58.600Z,1016.1
2022-10-13T22:48:58.955Z,1016.1
2022-10-13T22:53:58.657Z,1016.1
2022-10-13T22:58:59.099Z,1016.1
2022-10-13T23:03:59.182Z,1016.1
2022-10-13T23:08:58.828Z,1016
2022-10-13T23:14:00.082Z,1016
2022-10-13T23:18:58.470Z,1015.9
2022-10-13T23:23:59.010Z,1015.9
2022-10-13T23:28:59.584Z,1015.8
2022-10-13T23:33:59.169Z,1015.8
2022-10-13T23:38:59.096Z,1015.7
2022-10-13T23:43:58.784Z,1015.7
2022-10-13T23:48:59.429Z,1015.7
2022-10-13T23:53:58.371Z,1015.7
2022-10-13T23:58:58.967Z,1015.6
